createdAt,value
2022-12-08T00:01:26.447Z,94755.00
2022-12-08T00:03:53.984Z,94751.80
2022-12-08T00:07:03.962Z,94746.40
2022-12-08T00:09:39.782Z,94748.00
2022-12-08T00:12:13.551Z,94741.20
2022-12-08T00:14:46.306Z,94743.40
2022-12-08T00:17:16.041Z,94743.20
2022-12-08T00:19:43.353Z,94747.60
2022-12-08T00:22:11.715Z,94746.80
2022-12-08T00:24:41.974Z,94741.40
2022-12-08T00:27:11.662Z,94742.80
2022-12-08T00:29:38.838Z,94742.40
2022-12-08T00:32:06.501Z,94740.20
2022-12-08T00:34:33.407Z,94743.00
2022-12-08T00:37:00.132Z,94735.40
2022-12-08T00:39:26.753Z,94733.80
2022-12-08T00:42:12.187Z,94733.60
2022-12-08T00:44:40.566Z,94732.20
2022-12-08T00:47:07.311Z,94721.40
2022-12-08T00:49:33.958Z,94723.20
2022-12-08T00:52:00.751Z,94723.40
2022-12-08T00:54:27.436Z,94723.80
2022-12-08T00:56:54.050Z,94722.80
2022-12-08T00:59:20.708Z,94720.80
2022-12-08T01:01:49.014Z,94720.00
2022-12-08T01:04:19.288Z,94721.60
2022-12-08T01:06:47.477Z,94722.00
2022-12-08T01:09:16.220Z,94719.80
2022-12-08T01:11:44.660Z,94723.40
2022-12-08T01:14:12.931Z,94722.60
2022-12-08T01:16:41.698Z,94724.20
2022-12-08T01:19:12.058Z,94723.80
2022-12-08T01:21:40.177Z,94724.20
2022-12-08T01:24:07.700Z,94723.20
2022-12-08T01:26:34.321Z,94726.20
2022-12-08T01:29:01.793Z,94723.60
2022-12-08T01:31:28.497Z,94725.40
2022-12-08T01:33:55.174Z,94724.00
2022-12-08T01:36:36.920Z,94720.20
2022-12-08T01:39:11.092Z,94724.20
2022-12-08T01:41:38.551Z,94721.40
2022-12-08T01:44:08.347Z,94713.80
2022-12-08T01:46:38.515Z,94708.40
2022-12-08T01:49:16.773Z,94706.20
2022-12-08T01:51:52.763Z,94702.40
2022-12-08T01:54:23.093Z,94704.80
2022-12-08T01:56:53.946Z,94701.00
2022-12-08T02:02:01.292Z,94694.80
2022-12-08T02:04:27.905Z,94693.00
2022-12-08T02:06:54.814Z,94691.80
2022-12-08T02:09:22.568Z,94693.60
2022-12-08T02:11:50.986Z,94693.20
2022-12-08T02:14:17.691Z,94684.00
2022-12-08T02:17:14.055Z,94681.00
2022-12-08T02:20:31.872Z,94672.40
2022-12-08T02:23:10.618Z,94668.60
2022-12-08T02:26:08.400Z,94667.00
2022-12-08T02:28:58.538Z,94662.60
2022-12-08T02:32:01.491Z,94662.60
2022-12-08T02:34:58.689Z,94662.20
2022-12-08T02:37:35.410Z,94657.80
2022-12-08T02:40:30.354Z,94656.80
2022-12-08T02:43:20.486Z,94654.80
2022-12-08T02:46:05.462Z,94655.40
2022-12-08T02:48:34.413Z,94652.20
2022-12-08T02:51:01.111Z,94654.40
2022-12-08T02:53:32.241Z,94654.20
2022-12-08T02:56:36.855Z,94650.60
2022-12-08T02:59:42.029Z,94645.00
2022-12-08T03:02:44.256Z,94645.60
2022-12-08T03:05:52.264Z,94641.60
2022-12-08T03:08:18.915Z,94638.40
2022-12-08T03:10:58.549Z,94636.20
2022-12-08T03:13:42.475Z,94634.80
2022-12-08T03:16:13.641Z,94633.60
2022-12-08T03:18:47.975Z,94633.00
2022-12-08T03:21:18.165Z,94627.40
2022-12-08T03:23:48.207Z,94629.20
2022-12-08T03:26:22.745Z,94628.00
2022-12-08T03:28:49.338Z,94629.80
2022-12-08T03:31:18.574Z,94628.00
2022-12-08T03:33:51.976Z,94625.40
2022-12-08T03:36:19.495Z,94620.60
2022-12-08T03:38:52.769Z,94618.60
2022-12-08T03:41:21.805Z,94620.60
2022-12-08T03:43:57.127Z,94621.40
2022-12-08T03:48:54.777Z,94619.80
2022-12-08T03:51:22.037Z,94617.40
2022-12-08T03:53:49.113Z,94617.60
2022-12-08T03:56:32.808Z,94612.60
2022-12-08T03:59:00.217Z,94612.00
2022-12-08T04:01:27.941Z,94614.80
2022-12-08T04:03:55.180Z,94608.80
2022-12-08T04:06:22.570Z,94609.00
2022-12-08T04:08:50.554Z,94607.60
2022-12-08T04:11:18.685Z,94607.60
2022-12-08T04:13:45.882Z,94604.40
2022-12-08T04:16:24.785Z,94603.20
2022-12-08T04:18:52.005Z,94604.20
2022-12-08T04:21:18.726Z,94608.00
2022-12-08T04:23:45.965Z,94607.20
2022-12-08T04:26:14.267Z,94608.60
2022-12-08T04:28:41.079Z,94607.80
2022-12-08T04:31:07.809Z,94601.60
2022-12-08T04:33:35.473Z,94600.00
2022-12-08T04:36:04.397Z,94602.60
2022-12-08T04:38:31.545Z,94596.60
2022-12-08T04:40:58.164Z,94592.00
2022-12-08T04:43:24.806Z,94593.60
2022-12-08T04:45:51.578Z,94589.40
2022-12-08T04:48:18.509Z,94590.00
2022-12-08T04:50:46.154Z,94585.60
2022-12-08T04:53:14.123Z,94588.60
2022-12-08T04:55:44.118Z,94586.40
2022-12-08T04:58:16.889Z,94585.40
2022-12-08T05:00:44.664Z,94587.40
2022-12-08T05:03:11.933Z,94589.00
2022-12-08T05:05:38.681Z,94582.60
2022-12-08T05:08:05.811Z,94584.80
2022-12-08T05:10:33.360Z,94583.20
2022-12-08T05:13:00.718Z,94583.60
2022-12-08T05:15:27.636Z,94581.40
2022-12-08T05:17:54.752Z,94582.80
2022-12-08T05:20:21.771Z,94584.20
2022-12-08T05:22:48.535Z,94582.00
2022-12-08T05:25:15.179Z,94581.80
2022-12-08T05:27:43.263Z,94578.40
2022-12-08T05:30:10.477Z,94571.00
2022-12-08T05:32:37.162Z,94570.00
2022-12-08T05:35:03.875Z,94571.60
2022-12-08T05:37:30.486Z,94571.80
2022-12-08T05:39:57.095Z,94561.60
2022-12-08T05:42:25.119Z,94561.40
2022-12-08T05:44:52.685Z,94561.60
2022-12-08T05:47:19.460Z,94560.20
2022-12-08T05:49:46.127Z,94556.40
2022-12-08T05:52:12.742Z,94559.60
2022-12-08T05:54:39.284Z,94553.80
2022-12-08T05:57:05.867Z,94554.20
2022-12-08T05:59:32.665Z,94549.60
2022-12-08T06:01:59.388Z,94557.60
2022-12-08T06:04:26.126Z,94557.60
2022-12-08T06:06:52.854Z,94554.60
2022-12-08T06:09:19.423Z,94553.40
2022-12-08T06:11:47.220Z,94553.20
2022-12-08T06:14:13.952Z,94557.20
2022-12-08T06:16:40.785Z,94559.80
2022-12-08T06:19:07.731Z,94554.60
2022-12-08T06:21:34.527Z,94553.60
2022-12-08T06:24:01.246Z,94551.60
2022-12-08T06:26:28.737Z,94550.40
2022-12-08T06:28:55.445Z,94550.80
2022-12-08T06:31:25.900Z,94555.40
2022-12-08T06:33:54.392Z,94558.60
2022-12-08T06:36:25.214Z,94553.80
2022-12-08T06:38:52.200Z,94554.40
2022-12-08T06:41:19.049Z,94547.60
2022-12-08T06:43:46.344Z,94553.20
2022-12-08T06:46:17.656Z,94552.00
2022-12-08T06:48:44.835Z,94553.80
2022-12-08T06:51:15.044Z,94545.60
2022-12-08T06:53:43.510Z,94553.60
2022-12-08T06:56:11.352Z,94549.20
2022-12-08T06:58:38.536Z,94545.80
2022-12-08T07:01:11.807Z,94551.00
2022-12-08T07:03:40.443Z,94555.00
2022-12-08T07:06:07.657Z,94556.80
2022-12-08T07:08:35.072Z,94554.00
2022-12-08T07:11:10.267Z,94555.20
2022-12-08T07:13:37.069Z,94552.80
2022-12-08T07:16:12.079Z,94556.00
2022-12-08T07:18:39.538Z,94560.20
2022-12-08T07:21:11.170Z,94562.20
2022-12-08T07:23:38.035Z,94562.40
2022-12-08T07:26:08.592Z,94555.00
2022-12-08T07:28:38.439Z,94555.20
2022-12-08T07:31:06.939Z,94551.20
2022-12-08T07:33:36.057Z,94559.40
2022-12-08T07:36:06.420Z,94560.80
2022-12-08T07:38:33.265Z,94562.00
2022-12-08T07:40:59.983Z,94559.00
2022-12-08T07:43:26.703Z,94562.00
2022-12-08T07:45:53.524Z,94557.60
2022-12-08T07:48:20.369Z,94560.00
2022-12-08T07:50:47.626Z,94560.80
2022-12-08T07:53:14.562Z,94555.80
2022-12-08T07:55:44.553Z,94556.00
2022-12-08T07:58:11.948Z,94554.60
2022-12-08T08:00:38.691Z,94555.60
2022-12-08T08:03:06.289Z,94559.20
2022-12-08T08:05:33.129Z,94561.80
2022-12-08T08:07:59.875Z,94561.60
2022-12-08T08:10:26.734Z,94556.20
2022-12-08T08:12:53.351Z,94554.00
2022-12-08T08:15:21.191Z,94556.20
2022-12-08T08:17:51.888Z,94550.00
2022-12-08T08:20:20.627Z,94553.60
2022-12-08T08:22:49.446Z,94553.60
2022-12-08T08:25:17.855Z,94560.20
2022-12-08T08:27:46.730Z,94557.80
2022-12-08T08:30:19.974Z,94552.20
2022-12-08T08:32:47.973Z,94556.40
2022-12-08T08:35:14.689Z,94552.60
2022-12-08T08:37:47.057Z,94556.60
2022-12-08T08:40:15.376Z,94555.80
2022-12-08T08:42:41.976Z,94550.00
2022-12-08T08:45:09.122Z,94549.60
2022-12-08T08:47:35.787Z,94547.80
2022-12-08T08:50:03.058Z,94548.80
2022-12-08T08:52:30.162Z,94550.40
2022-12-08T08:54:56.835Z,94549.60
2022-12-08T08:57:26.023Z,94554.20
2022-12-08T08:59:53.983Z,94553.40
2022-12-08T09:02:21.541Z,94558.40
2022-12-08T09:04:48.420Z,94557.20
2022-12-08T09:07:16.126Z,94556.60
2022-12-08T09:09:42.922Z,94553.00
2022-12-08T09:12:10.820Z,94549.20
2022-12-08T09:14:37.548Z,94553.60
2022-12-08T09:17:05.191Z,94550.00
2022-12-08T09:19:32.623Z,94555.20
2022-12-08T09:21:59.295Z,94553.80
2022-12-08T09:24:26.374Z,94550.20
2022-12-08T09:26:53.102Z,94547.00
2022-12-08T09:29:19.770Z,94547.40
2022-12-08T09:31:46.630Z,94548.00
2022-12-08T09:34:13.985Z,94539.80
2022-12-08T09:36:40.926Z,94536.40
2022-12-08T09:39:08.017Z,94535.00
2022-12-08T09:41:49.975Z,94532.40
2022-12-08T09:44:38.717Z,94523.40
2022-12-08T09:47:18.762Z,94520.00
2022-12-08T09:49:53.593Z,94519.60
2022-12-08T09:52:30.309Z,94516.20
2022-12-08T09:55:01.373Z,94513.20
2022-12-08T09:57:28.038Z,94510.80
2022-12-08T10:00:02.632Z,94505.60
2022-12-08T10:02:32.378Z,94500.00
2022-12-08T10:05:02.171Z,94497.80
2022-12-08T10:07:48.884Z,94495.80
2022-12-08T10:10:43.100Z,94493.40
2022-12-08T10:13:59.839Z,94487.80
2022-12-08T10:16:35.985Z,94487.20
2022-12-08T10:19:19.285Z,94484.40
2022-12-08T10:21:46.380Z,94484.80
2022-12-08T10:24:39.757Z,94482.60
2022-12-08T10:27:12.614Z,94477.60
2022-12-08T10:29:42.163Z,94478.40
2022-12-08T10:32:18.740Z,94475.40
2022-12-08T10:35:12.048Z,94472.40
2022-12-08T10:37:38.984Z,94467.60
2022-12-08T10:40:10.540Z,94460.40
2022-12-08T10:42:43.920Z,94463.20
2022-12-08T10:45:10.538Z,94451.80
2022-12-08T10:47:44.613Z,94448.80
2022-12-08T10:50:34.041Z,94447.60
2022-12-08T10:53:08.724Z,94451.00
2022-12-08T10:56:04.115Z,94449.00
2022-12-08T10:58:44.190Z,94445.80
2022-12-08T11:01:34.011Z,94440.00
2022-12-08T11:04:11.276Z,94435.20
2022-12-08T11:06:40.277Z,94432.00
2022-12-08T11:09:24.832Z,94435.20
2022-12-08T11:11:59.088Z,94429.40
2022-12-08T11:14:42.479Z,94428.00
2022-12-08T11:17:22.168Z,94424.40
2022-12-08T11:20:09.218Z,94420.00
2022-12-08T11:22:52.616Z,94410.60
2022-12-08T11:25:28.496Z,94414.00
2022-12-08T11:28:01.226Z,94408.60
2022-12-08T11:30:38.341Z,94405.00
2022-12-08T11:33:25.095Z,94404.40
2022-12-08T11:35:59.398Z,94405.00
2022-12-08T11:38:28.833Z,94403.40
2022-12-08T11:41:15.593Z,94401.60
2022-12-08T11:44:13.735Z,94392.00
2022-12-08T11:46:48.878Z,94389.80
2022-12-08T11:49:15.615Z,94387.60
2022-12-08T11:52:00.551Z,94385.00
2022-12-08T11:54:33.859Z,94387.60
2022-12-08T11:57:16.274Z,94383.60
2022-12-08T11:59:46.233Z,94380.20
2022-12-08T12:02:19.049Z,94377.00
2022-12-08T12:05:05.569Z,94378.40
2022-12-08T12:07:47.589Z,94380.80
2022-12-08T12:10:43.671Z,94378.40
2022-12-08T12:13:22.525Z,94375.60
2022-12-08T12:16:16.531Z,94374.60
2022-12-08T12:18:51.179Z,94372.00
2022-12-08T12:21:42.394Z,94374.60
2022-12-08T12:24:23.934Z,94374.20
2022-12-08T12:27:03.040Z,94374.20
2022-12-08T12:29:34.889Z,94371.20
2022-12-08T12:32:07.143Z,94366.60
2022-12-08T12:34:48.493Z,94362.00
2022-12-08T12:37:35.903Z,94363.60
2022-12-08T12:40:17.244Z,94360.40
2022-12-08T12:43:09.747Z,94358.20
2022-12-08T12:45:43.427Z,94356.60
2022-12-08T12:48:09.965Z,94351.60
2022-12-08T12:50:46.091Z,94354.00
2022-12-08T12:53:19.118Z,94349.80
2022-12-08T12:55:45.673Z,94352.20
2022-12-08T12:58:23.360Z,94347.00
2022-12-08T13:00:49.984Z,94351.20
2022-12-08T13:03:17.802Z,94342.80
2022-12-08T13:05:52.499Z,94342.20
2022-12-08T13:08:26.294Z,94340.80
2022-12-08T13:11:04.896Z,94340.00
2022-12-08T13:13:31.839Z,94338.80
2022-12-08T13:16:18.912Z,94338.40
2022-12-08T13:18:52.918Z,94336.40
2022-12-08T13:21:23.823Z,94332.60
2022-12-08T13:24:12.760Z,94329.40
2022-12-08T13:27:04.457Z,94324.00
2022-12-08T13:29:33.047Z,94322.60
2022-12-08T13:32:07.642Z,94319.20
2022-12-08T13:34:45.569Z,94319.00
2022-12-08T13:37:12.151Z,94320.40
2022-12-08T13:40:12.738Z,94321.60
2022-12-08T13:43:01.761Z,94321.40
2022-12-08T13:46:20.167Z,94318.80
2022-12-08T13:49:41.933Z,94322.00
2022-12-08T13:57:41.659Z,94322.20
2022-12-08T14:00:19.313Z,94323.20
2022-12-08T14:02:49.426Z,94324.60
2022-12-08T14:05:40.549Z,94326.40
2022-12-08T14:08:36.301Z,94326.80
2022-12-08T14:11:07.165Z,94326.20
2022-12-08T14:13:34.497Z,94330.20
2022-12-08T14:16:02.350Z,94334.20
2022-12-08T14:18:31.635Z,94331.20
2022-12-08T14:21:20.719Z,94329.20
2022-12-08T14:23:48.050Z,94330.60
2022-12-08T14:26:14.757Z,94330.80
2022-12-08T14:28:45.060Z,94328.00
2022-12-08T14:31:14.084Z,94327.20
2022-12-08T14:33:41.116Z,94327.00
2022-12-08T14:36:09.530Z,94326.20
2022-12-08T14:38:36.396Z,94326.20
2022-12-08T14:41:06.758Z,94322.40
2022-12-08T14:43:34.258Z,94313.20
2022-12-08T14:46:22.636Z,94311.00
2022-12-08T14:48:49.497Z,94309.00
2022-12-08T14:51:18.830Z,94313.20
2022-12-08T14:54:00.491Z,94317.20
2022-12-08T14:56:36.438Z,94315.80
2022-12-08T14:59:05.904Z,94317.40
2022-12-08T15:01:34.168Z,94316.80
2022-12-08T15:04:28.598Z,94324.40
2022-12-08T15:07:14.939Z,94321.80
2022-12-08T15:09:45.316Z,94316.00
2022-12-08T15:12:11.883Z,94319.60
2022-12-08T15:15:23.740Z,94323.60
2022-12-08T15:18:02.651Z,94321.00
2022-12-08T15:20:53.389Z,94320.80
2022-12-08T15:23:25.705Z,94321.60
2022-12-08T15:25:54.053Z,94321.60
2022-12-08T15:28:29.644Z,94320.40
2022-12-08T15:30:58.961Z,94327.00
2022-12-08T15:33:26.915Z,94326.20
2022-12-08T15:35:53.545Z,94330.60
2022-12-08T15:38:28.879Z,94330.00
2022-12-08T15:40:57.495Z,94332.80
2022-12-08T15:43:24.494Z,94333.60
2022-12-08T15:45:59.684Z,94332.80
2022-12-08T15:48:29.796Z,94339.40
2022-12-08T15:50:57.358Z,94335.80
2022-12-08T15:53:24.016Z,94334.80
2022-12-08T15:56:26.367Z,94333.40
2022-12-08T15:58:53.520Z,94335.20
2022-12-08T16:01:21.278Z,94332.20
2022-12-08T16:09:34.043Z,94332.20
2022-12-08T16:12:20.203Z,94328.60
2022-12-08T16:15:48.563Z,94326.20
2022-12-08T16:17:34.967Z,94326.20
2022-12-08T16:20:03.722Z,94331.60
2022-12-08T16:25:22.704Z,94333.40
2022-12-08T16:28:03.113Z,94330.40
2022-12-08T16:30:36.131Z,94331.80
2022-12-08T16:33:02.787Z,94327.00
2022-12-08T16:35:30.205Z,94328.00
2022-12-08T16:37:56.992Z,94324.60
2022-12-08T16:40:23.682Z,94319.20
2022-12-08T16:42:50.571Z,94317.20
2022-12-08T16:45:27.939Z,94318.60
2022-12-08T16:48:00.595Z,94317.80
2022-12-08T16:50:34.391Z,94319.80
2022-12-08T16:53:08.974Z,94318.00
2022-12-08T16:55:35.704Z,94315.00
2022-12-08T16:58:03.669Z,94313.40
2022-12-08T17:00:36.790Z,94317.00
2022-12-08T17:03:05.945Z,94317.20
2022-12-08T17:05:32.598Z,94311.80
2022-12-08T17:07:59.782Z,94310.20
2022-12-08T17:10:30.033Z,94314.60
2022-12-08T17:12:56.951Z,94309.60
2022-12-08T17:15:25.742Z,94309.20
2022-12-08T17:17:52.975Z,94308.80
2022-12-08T17:20:25.075Z,94305.20
2022-12-08T17:22:58.384Z,94302.40
2022-12-08T17:25:26.767Z,94300.00
2022-12-08T17:27:53.961Z,94299.20
2022-12-08T17:30:20.750Z,94302.80
2022-12-08T17:32:47.425Z,94301.40
2022-12-08T17:35:15.283Z,94297.20
2022-12-08T17:37:43.479Z,94299.40
2022-12-08T17:40:10.500Z,94295.80
2022-12-08T17:42:38.630Z,94288.20
2022-12-08T17:45:08.135Z,94287.60
2022-12-08T17:47:35.651Z,94287.80
2022-12-08T17:50:02.954Z,94289.80
2022-12-08T17:52:29.721Z,94293.60
2022-12-08T17:54:56.440Z,94292.20
2022-12-08T17:57:23.050Z,94293.80
2022-12-08T17:59:49.663Z,94296.80
2022-12-08T18:02:16.322Z,94293.00
2022-12-08T18:04:43.034Z,94293.20
2022-12-08T18:07:09.673Z,94299.00
2022-12-08T18:09:36.294Z,94302.60
2022-12-08T18:12:03.052Z,94302.60
2022-12-08T18:14:29.626Z,94300.00
2022-12-08T18:16:56.331Z,94297.60
2022-12-08T18:19:23.125Z,94298.40
2022-12-08T18:21:49.821Z,94294.40
2022-12-08T18:24:23.254Z,94297.20
2022-12-08T18:26:52.411Z,94295.60
2022-12-08T18:29:21.510Z,94294.00
2022-12-08T18:31:48.637Z,94290.00
2022-12-08T18:34:15.284Z,94291.60
2022-12-08T18:36:42.036Z,94285.60
2022-12-08T18:39:30.786Z,94281.40
2022-12-08T18:41:59.703Z,94286.00
2022-12-08T18:44:26.378Z,94281.80
2022-12-08T18:46:53.065Z,94285.00
2022-12-08T18:49:20.640Z,94283.60
2022-12-08T18:51:47.666Z,94279.00
2022-12-08T18:54:14.259Z,94271.40
2022-12-08T18:56:40.941Z,94272.20
2022-12-08T18:59:11.589Z,94269.60
2022-12-08T19:01:40.073Z,94274.20
2022-12-08T19:06:56.745Z,94283.40
2022-12-08T19:09:24.537Z,94290.00
2022-12-08T19:11:51.282Z,94290.80
2022-12-08T19:14:22.577Z,94287.20
2022-12-08T19:16:52.690Z,94289.60
2022-12-08T19:19:19.253Z,94291.20
2022-12-08T19:21:46.760Z,94288.20
2022-12-08T19:24:13.693Z,94292.60
2022-12-08T19:26:40.542Z,94286.00
2022-12-08T19:29:07.580Z,94293.00
2022-12-08T19:31:34.505Z,94296.00
2022-12-08T19:34:01.197Z,94294.00
2022-12-08T19:36:30.704Z,94297.80
2022-12-08T19:39:16.372Z,94301.20
2022-12-08T19:42:01.931Z,94291.60
2022-12-08T19:44:52.201Z,94289.80
2022-12-08T19:47:27.109Z,94284.60
2022-12-08T19:50:15.583Z,94278.40
2022-12-08T19:52:44.015Z,94273.60
2022-12-08T19:55:10.757Z,94276.60
2022-12-08T19:57:37.339Z,94284.00
2022-12-08T20:00:05.682Z,94290.40
2022-12-08T20:02:36.685Z,94292.60
2022-12-08T20:05:06.100Z,94289.60
2022-12-08T20:07:33.762Z,94293.40
2022-12-08T20:10:00.596Z,94287.80
2022-12-08T20:12:27.200Z,94285.20
2022-12-08T20:14:53.852Z,94281.00
2022-12-08T20:17:20.537Z,94275.00
2022-12-08T20:19:47.187Z,94276.20
2022-12-08T20:22:13.808Z,94272.60
2022-12-08T20:24:40.430Z,94275.20
2022-12-08T20:27:07.222Z,94282.40
2022-12-08T20:29:33.874Z,94281.40
2022-12-08T20:32:00.529Z,94280.80
2022-12-08T20:34:27.287Z,94277.40
2022-12-08T20:36:53.958Z,94279.60
2022-12-08T20:39:20.518Z,94277.40
2022-12-08T20:41:47.093Z,94279.80
2022-12-08T20:44:13.745Z,94279.20
2022-12-08T20:46:43.745Z,94271.80
2022-12-08T20:49:13.138Z,94276.20
2022-12-08T20:51:40.018Z,94278.60
2022-12-08T20:54:06.720Z,94275.80
2022-12-08T20:56:33.320Z,94275.40
2022-12-08T20:59:00.222Z,94272.00
2022-12-08T21:01:27.417Z,94267.20
2022-12-08T21:03:54.892Z,94265.20
2022-12-08T21:06:24.602Z,94264.40
2022-12-08T21:08:51.982Z,94263.60
2022-12-08T21:11:19.782Z,94264.20
2022-12-08T21:13:46.919Z,94258.80
2022-12-08T21:16:15.328Z,94251.00
2022-12-08T21:18:42.865Z,94248.60
2022-12-08T21:21:14.330Z,94245.40
2022-12-08T21:23:42.751Z,94247.60
2022-12-08T21:26:16.004Z,94251.60
2022-12-08T21:28:43.572Z,94249.00
2022-12-08T21:31:17.201Z,94248.80
2022-12-08T21:33:45.081Z,94250.80
2022-12-08T21:36:15.914Z,94250.00
2022-12-08T21:38:43.983Z,94247.00
2022-12-08T21:41:15.504Z,94251.60
2022-12-08T21:43:43.244Z,94249.60
2022-12-08T21:46:17.338Z,94249.20
2022-12-08T21:48:44.430Z,94263.20
2022-12-08T21:51:11.570Z,94268.40
2022-12-08T21:53:38.332Z,94270.80
2022-12-08T21:56:09.570Z,94276.20
2022-12-08T21:58:36.352Z,94266.80
2022-12-08T22:01:12.480Z,94261.40
2022-12-08T22:03:40.584Z,94259.00
2022-12-08T22:06:14.236Z,94262.60
2022-12-08T22:08:41.762Z,94269.80
2022-12-08T22:11:10.652Z,94265.20
2022-12-08T22:13:40.476Z,94259.80
2022-12-08T22:16:11.509Z,94257.40
2022-12-08T22:18:38.764Z,94259.80
2022-12-08T22:21:11.317Z,94260.20
2022-12-08T22:23:38.411Z,94261.00
2022-12-08T22:26:06.248Z,94257.80
2022-12-08T22:28:37.814Z,94249.60
2022-12-08T22:31:16.634Z,94244.20
2022-12-08T22:33:44.297Z,94248.40
2022-12-08T22:36:18.998Z,94243.20
2022-12-08T22:38:46.818Z,94236.80
2022-12-08T22:41:13.572Z,94247.60
2022-12-08T22:43:41.508Z,94237.60
2022-12-08T22:46:17.322Z,94242.40
2022-12-08T22:48:44.606Z,94238.80
2022-12-08T22:51:11.474Z,94236.20
2022-12-08T22:53:38.223Z,94226.00
2022-12-08T22:56:10.659Z,94216.80
2022-12-08T22:58:42.291Z,94219.20
2022-12-08T23:01:09.461Z,94230.60
2022-12-08T23:03:36.198Z,94238.40
2022-12-08T23:06:03.219Z,94242.80
2022-12-08T23:08:30.152Z,94235.00
2022-12-08T23:10:57.968Z,94233.40
2022-12-08T23:13:24.914Z,94225.20
2022-12-08T23:15:51.786Z,94230.60
2022-12-08T23:18:19.301Z,94223.00
2022-12-08T23:20:47.653Z,94223.60
2022-12-08T23:23:15.682Z,94222.60
2022-12-08T23:25:43.387Z,94224.40
2022-12-08T23:28:11.259Z,94223.80
2022-12-08T23:30:42.122Z,94213.60
2022-12-08T23:33:09.192Z,94198.20
2022-12-08T23:35:36.320Z,94202.60
2022-12-08T23:38:03.723Z,94210.60
2022-12-08T23:40:30.569Z,94209.20
2022-12-08T23:42:57.275Z,94203.20
2022-12-08T23:45:24.083Z,94189.20
2022-12-08T23:47:50.751Z,94184.60
2022-12-08T23:50:17.647Z,94184.80
2022-12-08T23:52:44.834Z,94190.40
2022-12-08T23:55:11.483Z,94199.60
2022-12-08T23:57:38.610Z,94200.40
